Terminal Aerodrome Forecast
Issued by NWS

Home | Current Version | Previous Version | Graphics & Text | Print | Product List | Glossary On
Versions: 1 2 3 4 5 6 7 8 9 10 11 12 13 14 15 16 17
936
FTUS45 KGGW 051916 AAB
TAFSDY
TAF AMD
KSDY 051916Z 0519/0618 32025G35KT 1SM -SN BLSN SCT012 OVC025
      TEMPO 0519/0523 1/2SM SN BLSN BKN015 OVC025
     FM060100 31019G28KT 2SM -SN BLSN OVC015
     FM060400 30018G27KT 5SM -SHSN BLSN OVC015
     FM060900 30015KT P6SM BKN020=

USA.gov is the U.S. government's official web portal to all federal, state and local government web resources and services.